createdAt,value
2018-05-15T00:01:08.290Z,86.42
2018-05-15T00:03:35.903Z,86.49
2018-05-15T00:06:03.606Z,86.43
2018-05-15T00:08:31.360Z,86.99
2018-05-15T00:10:59.120Z,86.44
2018-05-15T00:13:26.783Z,86.45
2018-05-15T00:15:54.382Z,87.87
2018-05-15T00:18:22.092Z,87.12
2018-05-15T00:20:49.764Z,87.56
2018-05-15T00:23:18.443Z,87.81
2018-05-15T00:25:46.323Z,88.25
2018-05-15T00:28:14.111Z,88.59
2018-05-15T00:30:41.786Z,89.24
2018-05-15T00:33:10.367Z,89.32
2018-05-15T00:35:38.016Z,89.48
2018-05-15T00:38:05.757Z,89.93
2018-05-15T00:40:33.393Z,89.72
2018-05-15T00:43:01.048Z,89.29
2018-05-15T00:45:28.749Z,88.68
2018-05-15T00:47:56.824Z,89.49
2018-05-15T00:50:24.721Z,90.03
2018-05-15T00:52:52.598Z,89.90
2018-05-15T00:55:32.057Z,89.61
2018-05-15T00:57:59.846Z,89.35
2018-05-15T01:00:27.510Z,89.44
2018-05-15T01:02:55.283Z,89.46
2018-05-15T01:05:23.148Z,89.72
2018-05-15T01:07:51.655Z,88.97
2018-05-15T01:10:20.656Z,89.42
2018-05-15T01:12:48.428Z,90.17
2018-05-15T01:15:16.045Z,90.18
2018-05-15T01:17:43.975Z,89.73
2018-05-15T01:20:12.100Z,89.10
2018-05-15T01:22:40.154Z,88.12
2018-05-15T01:25:07.933Z,87.80
2018-05-15T01:27:35.610Z,89.34
2018-05-15T01:30:03.454Z,89.61
2018-05-15T01:32:31.106Z,89.81
2018-05-15T01:34:58.995Z,90.47
2018-05-15T01:37:26.703Z,91.14
2018-05-15T01:39:54.305Z,90.53
2018-05-15T01:42:21.982Z,90.92
2018-05-15T01:44:49.851Z,90.82
2018-05-15T01:47:17.724Z,90.81
2018-05-15T01:49:45.565Z,91.15
2018-05-15T01:52:13.224Z,90.75
2018-05-15T01:54:40.908Z,90.14
2018-05-15T01:57:08.568Z,89.80
2018-05-15T01:59:36.438Z,90.99
2018-05-15T02:02:04.896Z,90.68
2018-05-15T02:04:32.581Z,90.99
2018-05-15T02:07:00.234Z,91.06
2018-05-15T02:09:27.810Z,90.58
2018-05-15T02:11:55.556Z,90.89
2018-05-15T02:14:23.647Z,90.58
2018-05-15T02:16:51.499Z,91.28
2018-05-15T02:19:19.161Z,90.57
2018-05-15T02:21:46.803Z,89.91
2018-05-15T02:24:14.388Z,89.94
2018-05-15T02:26:42.125Z,90.12
2018-05-15T02:29:09.812Z,90.14
2018-05-15T02:31:38.027Z,91.41
2018-05-15T02:34:06.277Z,91.02
2018-05-15T02:36:34.438Z,91.42
2018-05-15T02:39:02.187Z,91.14
2018-05-15T02:41:29.792Z,90.36
2018-05-15T02:43:57.865Z,90.20
2018-05-15T02:46:26.035Z,91.09
2018-05-15T02:48:53.631Z,91.39
2018-05-15T02:51:21.865Z,91.59
2018-05-15T02:53:49.735Z,91.75
2018-05-15T02:56:19.127Z,91.72
2018-05-15T02:58:46.744Z,92.03
2018-05-15T03:01:15.912Z,92.30
2018-05-15T03:03:44.522Z,91.69
2018-05-15T03:06:12.187Z,91.58
2018-05-15T03:08:40.002Z,91.16
2018-05-15T03:11:07.652Z,91.08
2018-05-15T03:13:35.363Z,90.51
2018-05-15T03:16:03.900Z,91.25
2018-05-15T03:18:31.595Z,91.29
2018-05-15T03:20:59.334Z,90.84
2018-05-15T03:23:26.981Z,90.09
2018-05-15T03:25:54.679Z,89.86
2018-05-15T03:28:22.315Z,90.33
2018-05-15T03:30:49.968Z,91.19
2018-05-15T03:33:17.609Z,91.07
2018-05-15T03:35:45.516Z,91.30
2018-05-15T03:38:13.390Z,91.69
2018-05-15T03:40:41.005Z,91.83
2018-05-15T03:43:08.664Z,92.06
2018-05-15T03:45:37.171Z,91.55
2018-05-15T03:48:05.034Z,91.06
2018-05-15T03:50:33.520Z,91.95
2018-05-15T03:53:01.231Z,92.49
2018-05-15T03:55:28.864Z,92.57
2018-05-15T03:57:57.430Z,92.21
2018-05-15T04:00:36.984Z,92.37
2018-05-15T04:03:16.834Z,92.67
2018-05-15T04:05:57.011Z,92.58
2018-05-15T04:08:24.595Z,92.28
2018-05-15T04:10:52.902Z,92.17
2018-05-15T04:13:20.518Z,91.68
2018-05-15T04:15:48.543Z,91.88
2018-05-15T04:18:16.175Z,91.69
2018-05-15T04:20:43.972Z,91.36
2018-05-15T04:23:11.665Z,91.79
2018-05-15T04:25:39.416Z,91.94
2018-05-15T04:28:07.131Z,91.70
2018-05-15T04:30:35.131Z,91.00
2018-05-15T04:33:02.828Z,91.18
2018-05-15T04:35:30.492Z,90.53
2018-05-15T04:37:58.720Z,90.82
2018-05-15T04:40:27.200Z,90.74
2018-05-15T04:42:54.909Z,91.26
2018-05-15T04:45:22.573Z,91.90
2018-05-15T04:47:50.924Z,91.24
2018-05-15T04:50:18.562Z,91.37
2018-05-15T04:52:46.363Z,91.69
2018-05-15T04:55:14.053Z,91.94
2018-05-15T04:57:41.705Z,91.34
2018-05-15T05:00:09.386Z,90.50
2018-05-15T05:02:37.528Z,90.69
2018-05-15T05:05:05.203Z,89.93
2018-05-15T05:07:33.088Z,90.24
2018-05-15T05:10:00.760Z,90.78
2018-05-15T05:12:28.474Z,91.29
2018-05-15T05:14:56.115Z,90.02
2018-05-15T05:17:23.843Z,90.40
2018-05-15T05:19:51.955Z,91.29
2018-05-15T05:22:19.611Z,90.79
2018-05-15T05:24:47.315Z,91.05
2018-05-15T05:27:15.684Z,91.18
2018-05-15T05:29:43.302Z,91.14
2018-05-15T05:32:11.280Z,91.81
2018-05-15T05:34:39.834Z,90.65
2018-05-15T05:37:07.578Z,89.76
2018-05-15T05:39:35.651Z,90.76
2018-05-15T05:42:03.522Z,91.27
2018-05-15T05:44:31.273Z,90.10
2018-05-15T05:46:59.137Z,91.45
2018-05-15T05:49:26.791Z,91.13
2018-05-15T05:51:54.468Z,91.97
2018-05-15T05:54:22.340Z,91.42
2018-05-15T05:56:49.945Z,90.85
2018-05-15T05:59:18.253Z,91.21
2018-05-15T06:01:46.006Z,91.74
2018-05-15T06:04:13.645Z,92.21
2018-05-15T06:06:41.432Z,91.76
2018-05-15T06:09:09.264Z,90.96
2018-05-15T06:11:36.904Z,91.34
2018-05-15T06:14:05.686Z,90.74
2018-05-15T06:16:33.778Z,91.69
2018-05-15T06:19:01.555Z,91.29
2018-05-15T06:21:29.621Z,92.01
2018-05-15T06:23:57.617Z,91.38
2018-05-15T06:26:26.560Z,91.73
2018-05-15T06:28:54.322Z,91.19
2018-05-15T06:31:22.807Z,91.52
2018-05-15T06:33:50.892Z,91.24
2018-05-15T06:36:19.362Z,89.93
2018-05-15T06:38:48.039Z,90.24
2018-05-15T06:41:15.885Z,90.47
2018-05-15T06:43:44.812Z,89.97
2018-05-15T06:46:12.821Z,91.33
2018-05-15T06:48:40.459Z,92.00
2018-05-15T06:51:08.975Z,92.07
2018-05-15T06:53:37.217Z,91.65
2018-05-15T06:56:04.959Z,91.91
2018-05-15T06:58:32.958Z,92.31
2018-05-15T07:01:00.945Z,91.36
2018-05-15T07:03:28.768Z,91.79
2018-05-15T07:05:56.411Z,91.95
2018-05-15T07:08:24.061Z,91.59
2018-05-15T07:10:51.962Z,91.21
2018-05-15T07:13:19.784Z,90.17
2018-05-15T07:15:48.328Z,90.32
2018-05-15T07:18:16.246Z,89.24
2018-05-15T07:20:44.537Z,89.35
2018-05-15T07:23:12.219Z,89.29
2018-05-15T07:25:40.503Z,89.51
2018-05-15T07:28:08.769Z,89.21
2018-05-15T07:30:36.628Z,90.42
2018-05-15T07:33:04.353Z,89.78
2018-05-15T07:35:32.000Z,88.77
2018-05-15T07:37:59.714Z,88.88
2018-05-15T07:40:27.767Z,88.46
2018-05-15T07:42:55.550Z,89.81
2018-05-15T07:45:24.213Z,88.80
2018-05-15T07:47:52.034Z,89.39
2018-05-15T07:50:19.865Z,89.54
2018-05-15T07:52:48.282Z,89.89
2018-05-15T07:55:15.941Z,89.18
2018-05-15T07:57:43.687Z,88.67
2018-05-15T08:00:11.810Z,88.69
2018-05-15T08:02:39.451Z,87.39
2018-05-15T08:05:07.283Z,88.33
2018-05-15T08:07:34.950Z,88.23
2018-05-15T08:10:02.721Z,88.62
2018-05-15T08:12:30.428Z,88.59
2018-05-15T08:14:58.680Z,88.23
2018-05-15T08:17:27.333Z,86.90
2018-05-15T08:19:55.173Z,87.42
2018-05-15T08:22:22.874Z,87.91
2018-05-15T08:24:50.718Z,87.40
2018-05-15T08:27:19.279Z,87.43
2018-05-15T08:29:46.989Z,86.41
2018-05-15T08:32:14.648Z,85.35
2018-05-15T08:34:42.306Z,87.92
2018-05-15T08:37:10.028Z,87.03
2018-05-15T08:39:37.718Z,86.05
2018-05-15T08:42:05.493Z,87.73
2018-05-15T08:44:34.657Z,88.56
2018-05-15T08:47:02.410Z,88.29
2018-05-15T08:49:30.802Z,89.07
2018-05-15T08:51:58.468Z,88.49
2018-05-15T08:54:26.154Z,87.64
2018-05-15T08:56:54.144Z,88.32
2018-05-15T08:59:21.786Z,88.50
2018-05-15T09:01:49.417Z,88.62
2018-05-15T09:04:17.129Z,86.90
2018-05-15T09:06:44.995Z,87.33
2018-05-15T09:09:12.668Z,86.92
2018-05-15T09:11:40.513Z,88.14
2018-05-15T09:14:08.180Z,87.05
2018-05-15T09:16:35.949Z,87.22
2018-05-15T09:19:03.545Z,87.00
2018-05-15T09:21:32.155Z,86.98
2018-05-15T09:24:00.054Z,85.96
2018-05-15T09:26:27.963Z,85.67
2018-05-15T09:28:55.901Z,84.75
2018-05-15T09:31:23.777Z,85.67
2018-05-15T09:33:51.599Z,86.26
2018-05-15T09:36:19.558Z,84.93
2018-05-15T09:38:47.195Z,84.67
2018-05-15T09:41:14.902Z,85.86
2018-05-15T09:43:57.526Z,85.59
2018-05-15T09:46:25.412Z,85.08
2018-05-15T09:48:53.069Z,83.10
2018-05-15T09:51:20.923Z,84.47
2018-05-15T09:53:48.588Z,82.06
2018-05-15T09:56:16.431Z,81.62
2018-05-15T09:58:44.108Z,82.53
2018-05-15T10:01:11.696Z,78.21
2018-05-15T10:03:39.875Z,79.16
2018-05-15T10:06:07.722Z,80.42
2018-05-15T10:08:35.579Z,82.06
2018-05-15T10:11:03.259Z,81.86
2018-05-15T10:13:31.954Z,81.34
2018-05-15T10:15:59.591Z,82.01
2018-05-15T10:18:27.357Z,81.32
2018-05-15T10:20:55.142Z,80.32
2018-05-15T10:23:23.006Z,81.27
2018-05-15T10:25:50.855Z,79.76
2018-05-15T10:28:18.846Z,80.79
2018-05-15T10:30:46.596Z,79.93
2018-05-15T10:33:14.460Z,80.28
2018-05-15T10:35:42.142Z,78.58
2018-05-15T10:38:09.797Z,78.98
2018-05-15T10:40:38.060Z,81.57
2018-05-15T10:43:05.849Z,78.44
2018-05-15T10:45:34.634Z,75.35
2018-05-15T10:48:02.371Z,78.31
2018-05-15T10:50:30.402Z,81.73
2018-05-15T10:52:59.271Z,78.04
2018-05-15T10:55:26.923Z,79.15
2018-05-15T10:57:54.573Z,79.74
2018-05-15T11:00:22.438Z,80.00
2018-05-15T11:02:50.100Z,77.98
2018-05-15T11:05:17.994Z,77.72
2018-05-15T11:07:46.777Z,78.44
2018-05-15T11:10:14.572Z,78.05
2018-05-15T11:12:42.702Z,77.85
2018-05-15T11:15:10.434Z,78.15
2018-05-15T11:17:38.243Z,80.32
2018-05-15T11:20:17.782Z,77.83
2018-05-15T11:22:57.218Z,79.51
2018-05-15T11:25:25.069Z,81.22
2018-05-15T11:27:54.570Z,82.21
2018-05-15T11:30:22.271Z,82.97
2018-05-15T11:32:51.192Z,81.85
2018-05-15T11:35:19.007Z,83.66
2018-05-15T11:37:46.885Z,82.52
2018-05-15T11:40:15.258Z,82.48
2018-05-15T11:42:42.911Z,82.26
2018-05-15T11:45:10.583Z,83.47
2018-05-15T11:47:38.412Z,83.41
2018-05-15T11:50:06.781Z,81.52
2018-05-15T11:52:35.211Z,82.15
2018-05-15T11:55:02.659Z,82.07
2018-05-15T11:57:30.927Z,81.81
2018-05-15T11:59:58.723Z,82.95
2018-05-15T12:02:26.451Z,82.71
2018-05-15T12:04:54.527Z,81.50
2018-05-15T12:07:23.174Z,83.55
2018-05-15T12:09:50.848Z,82.63
2018-05-15T12:12:18.550Z,82.97
2018-05-15T12:14:46.473Z,84.87
2018-05-15T12:17:14.296Z,85.51
2018-05-15T12:19:42.775Z,84.89
2018-05-15T12:22:10.514Z,86.32
2018-05-15T12:24:38.570Z,86.17
2018-05-15T12:27:06.362Z,85.97
2018-05-15T12:29:34.778Z,86.22
2018-05-15T12:32:02.519Z,86.79
2018-05-15T12:34:30.592Z,85.71
2018-05-15T12:36:58.461Z,85.55
2018-05-15T12:39:27.868Z,87.01
2018-05-15T12:41:55.905Z,87.61
2018-05-15T12:44:23.663Z,85.92
2018-05-15T12:46:52.496Z,87.30
2018-05-15T12:49:21.512Z,85.04
2018-05-15T12:51:49.299Z,85.76
2018-05-15T12:54:17.275Z,85.97
2018-05-15T12:56:45.866Z,85.75
2018-05-15T12:59:13.685Z,86.29
2018-05-15T13:01:41.763Z,86.08
2018-05-15T13:04:09.809Z,86.17
2018-05-15T13:06:37.470Z,85.48
2018-05-15T13:09:06.509Z,85.29
2018-05-15T13:11:35.421Z,85.13
2018-05-15T13:14:03.389Z,85.72
2018-05-15T13:16:31.295Z,86.64
2018-05-15T13:18:59.164Z,86.42
2018-05-15T13:21:27.035Z,87.10
2018-05-15T13:23:56.169Z,84.95
2018-05-15T13:26:23.894Z,86.71
2018-05-15T13:28:51.972Z,86.10
2018-05-15T13:31:19.887Z,85.46
2018-05-15T13:33:48.532Z,85.29
2018-05-15T13:36:16.590Z,82.95
2018-05-15T13:38:44.614Z,85.22
2018-05-15T13:41:12.763Z,85.67
2018-05-15T13:43:40.612Z,84.96
2018-05-15T13:46:08.416Z,84.77
2018-05-15T13:48:37.767Z,84.87
2018-05-15T13:51:05.526Z,85.88
2018-05-15T13:53:33.877Z,85.89
2018-05-15T13:56:01.522Z,85.28
2018-05-15T13:58:30.445Z,84.46
2018-05-15T14:00:58.135Z,84.20
2018-05-15T14:03:25.822Z,85.04
2018-05-15T14:05:53.527Z,84.72
2018-05-15T14:08:21.234Z,84.49
2018-05-15T14:10:48.982Z,85.27
2018-05-15T14:13:17.651Z,84.96
2018-05-15T14:15:45.550Z,85.73
2018-05-15T14:18:14.023Z,86.24
2018-05-15T14:20:43.501Z,84.06
2018-05-15T14:23:11.596Z,84.48
2018-05-15T14:25:39.838Z,84.28
2018-05-15T14:28:09.686Z,84.80
2018-05-15T14:30:37.762Z,84.75
2018-05-15T14:33:07.692Z,83.32
2018-05-15T14:35:38.332Z,85.60
2018-05-15T14:38:09.021Z,86.53
2018-05-15T14:40:38.029Z,86.89
2018-05-15T14:43:19.007Z,84.61
2018-05-15T14:45:46.905Z,85.11
2018-05-15T14:48:16.022Z,85.97
2018-05-15T14:51:05.388Z,87.42
2018-05-15T14:53:35.048Z,87.00
2018-05-15T14:56:03.154Z,85.86
2018-05-15T14:58:31.191Z,86.98
2018-05-15T15:01:00.366Z,83.48
2018-05-15T15:03:28.667Z,84.21
2018-05-15T15:05:57.142Z,84.05
2018-05-15T15:08:25.087Z,85.06
2018-05-15T15:10:52.952Z,87.12
2018-05-15T15:13:20.992Z,86.62
2018-05-15T15:15:49.009Z,87.55
2018-05-15T15:18:17.099Z,87.09
2018-05-15T15:20:45.175Z,86.77
2018-05-15T15:23:13.422Z,86.29
2018-05-15T15:25:41.831Z,85.96
2018-05-15T15:28:11.200Z,86.12
2018-05-15T15:30:39.890Z,85.83
2018-05-15T15:33:07.856Z,86.53
2018-05-15T15:35:35.756Z,86.41
2018-05-15T15:38:03.791Z,86.00
2018-05-15T15:40:31.605Z,85.79
2018-05-15T15:43:01.001Z,85.50
2018-05-15T15:45:30.142Z,86.59
2018-05-15T15:47:58.207Z,86.21
2018-05-15T15:50:27.145Z,86.24
2018-05-15T15:52:55.071Z,86.97
2018-05-15T15:55:22.995Z,85.51
2018-05-15T15:57:51.878Z,85.41
2018-05-15T16:00:19.960Z,85.41
2018-05-15T16:02:48.033Z,85.77
2018-05-15T16:05:17.108Z,86.43
2018-05-15T16:07:46.431Z,86.74
2018-05-15T16:10:14.441Z,86.69
2018-05-15T16:12:42.557Z,86.55
2018-05-15T16:15:10.998Z,86.72
2018-05-15T16:17:38.918Z,86.83
2018-05-15T16:20:08.211Z,86.80
2018-05-15T16:22:35.998Z,86.89
2018-05-15T16:25:04.679Z,87.35
2018-05-15T16:27:32.460Z,88.12
2018-05-15T16:30:01.125Z,88.08
2018-05-15T16:32:29.398Z,86.52
2018-05-15T16:34:57.341Z,86.18
2018-05-15T16:37:25.032Z,86.79
2018-05-15T16:39:52.690Z,87.35
2018-05-15T16:42:21.040Z,87.54
2018-05-15T16:44:48.840Z,88.42
2018-05-15T16:47:16.592Z,88.17
2018-05-15T16:49:44.348Z,88.20
2018-05-15T16:52:12.826Z,88.72
2018-05-15T16:54:41.023Z,87.86
2018-05-15T16:57:08.846Z,88.49
2018-05-15T16:59:39.008Z,88.29
2018-05-15T17:02:07.898Z,87.23
2018-05-15T17:04:36.125Z,86.94
2018-05-15T17:07:03.817Z,87.81
2018-05-15T17:09:31.703Z,88.44
2018-05-15T17:11:59.500Z,87.96
2018-05-15T17:14:29.292Z,88.46
2018-05-15T17:16:58.298Z,88.01
2018-05-15T17:19:26.101Z,87.59
2018-05-15T17:21:54.730Z,86.92
2018-05-15T17:24:23.365Z,86.90
2018-05-15T17:26:55.094Z,87.16
2018-05-15T17:29:26.850Z,87.66
2018-05-15T17:31:54.964Z,87.48
2018-05-15T17:34:25.020Z,87.47
2018-05-15T17:36:53.073Z,87.50
2018-05-15T17:39:20.954Z,87.20
2018-05-15T17:41:49.084Z,87.23
2018-05-15T17:44:17.104Z,87.46
2018-05-15T17:46:45.474Z,87.37
2018-05-15T17:49:13.736Z,86.72
2018-05-15T17:51:41.789Z,87.47
2018-05-15T17:54:10.738Z,86.62
2018-05-15T17:56:39.979Z,86.36
2018-05-15T17:59:07.916Z,86.63
2018-05-15T18:01:36.559Z,85.90
2018-05-15T18:04:05.265Z,86.61
2018-05-15T18:06:33.713Z,87.16
2018-05-15T18:09:01.614Z,86.98
2018-05-15T18:11:29.614Z,86.71
2018-05-15T18:13:58.049Z,87.60
2018-05-15T18:16:25.720Z,89.05
2018-05-15T18:18:53.760Z,88.00
2018-05-15T18:21:21.885Z,87.98
2018-05-15T18:23:49.718Z,87.56
2018-05-15T18:26:17.443Z,88.12
2018-05-15T18:28:45.566Z,87.80
2018-05-15T18:31:14.146Z,88.19
2018-05-15T18:33:43.300Z,88.97
2018-05-15T18:36:11.289Z,88.76
2018-05-15T18:38:39.182Z,89.08
2018-05-15T18:41:07.668Z,89.83
2018-05-15T18:43:35.787Z,89.92
2018-05-15T18:46:03.515Z,89.81
2018-05-15T18:48:32.918Z,89.41
2018-05-15T18:51:02.479Z,88.80
2018-05-15T18:53:33.051Z,88.99
2018-05-15T18:56:01.539Z,88.76
2018-05-15T18:58:30.836Z,89.29
2018-05-15T19:01:00.243Z,89.29
2018-05-15T19:03:29.503Z,89.92
2018-05-15T19:05:58.824Z,89.31
2018-05-15T19:08:27.301Z,89.25
2018-05-15T19:10:55.759Z,88.64
2018-05-15T19:13:24.805Z,88.42
2018-05-15T19:15:58.066Z,88.55
2018-05-15T19:18:27.418Z,88.88
2018-05-15T19:20:59.997Z,89.59
2018-05-15T19:23:30.027Z,89.57
2018-05-15T19:26:01.834Z,89.54
2018-05-15T19:28:32.449Z,88.91
2018-05-15T19:31:05.235Z,89.11
2018-05-15T19:33:39.658Z,89.88
2018-05-15T19:36:11.993Z,90.51
2018-05-15T19:38:41.969Z,90.82
2018-05-15T19:41:11.176Z,90.91
2018-05-15T19:43:39.348Z,90.06
2018-05-15T19:46:08.948Z,90.42
2018-05-15T19:48:37.125Z,90.12
2018-05-15T19:51:05.601Z,89.90
2018-05-15T19:53:34.179Z,89.72
2018-05-15T19:56:01.958Z,89.45
2018-05-15T19:58:30.841Z,89.43
2018-05-15T20:00:58.824Z,89.40
2018-05-15T20:03:26.840Z,88.93
2018-05-15T20:05:55.660Z,88.85
2018-05-15T20:08:24.043Z,89.40
2018-05-15T20:10:52.125Z,89.52
2018-05-15T20:13:19.829Z,90.04
2018-05-15T20:15:48.354Z,90.01
2018-05-15T20:18:17.054Z,90.30
2018-05-15T20:20:45.266Z,90.03
2018-05-15T20:23:13.333Z,90.17
2018-05-15T20:25:42.073Z,89.98
2018-05-15T20:28:10.457Z,90.31
2018-05-15T20:30:38.342Z,89.77
2018-05-15T20:33:05.997Z,90.80
2018-05-15T20:35:33.991Z,89.93
2018-05-15T20:38:01.834Z,89.53
2018-05-15T20:40:29.692Z,89.71
2018-05-15T20:42:58.097Z,89.43
2018-05-15T20:45:26.104Z,89.33
2018-05-15T20:47:53.903Z,89.57
2018-05-15T20:50:21.777Z,90.07
2018-05-15T20:52:49.633Z,90.69
2018-05-15T20:55:17.509Z,90.44
2018-05-15T20:57:45.280Z,90.45
2018-05-15T21:00:12.923Z,90.15
2018-05-15T21:02:40.657Z,90.31
2018-05-15T21:05:08.565Z,90.61
2018-05-15T21:07:37.284Z,91.18
2018-05-15T21:10:04.918Z,91.09
2018-05-15T21:12:33.138Z,90.94
2018-05-15T21:15:02.003Z,90.61
2018-05-15T21:17:29.701Z,90.69
2018-05-15T21:19:57.502Z,91.34
2018-05-15T21:22:25.111Z,91.60
2018-05-15T21:24:53.144Z,90.66
2018-05-15T21:27:22.140Z,91.04
2018-05-15T21:29:50.016Z,91.15
2018-05-15T21:32:17.861Z,90.76
2018-05-15T21:34:46.359Z,90.59
2018-05-15T21:37:13.983Z,90.23
2018-05-15T21:39:41.781Z,90.26
2018-05-15T21:42:09.981Z,91.05
2018-05-15T21:44:37.812Z,91.50
2018-05-15T21:47:05.498Z,91.43
2018-05-15T21:49:33.232Z,91.34
2018-05-15T21:52:01.325Z,91.03
2018-05-15T21:54:29.242Z,90.59
2018-05-15T21:56:57.455Z,91.16
2018-05-15T21:59:25.667Z,91.15
2018-05-15T22:01:53.573Z,90.66
2018-05-15T22:04:21.259Z,91.64
2018-05-15T22:06:49.710Z,91.43
2018-05-15T22:09:17.426Z,90.87
2018-05-15T22:11:56.840Z,91.75
2018-05-15T22:14:36.179Z,91.25
2018-05-15T22:17:15.530Z,90.86
2018-05-15T22:19:55.023Z,91.14
2018-05-15T22:22:22.129Z,91.90
2018-05-15T22:24:49.925Z,91.97
2018-05-15T22:27:17.857Z,92.16
2018-05-15T22:29:46.043Z,91.98
2018-05-15T22:32:14.507Z,92.53
2018-05-15T22:34:42.170Z,92.40
2018-05-15T22:37:09.792Z,91.81
2018-05-15T22:39:37.443Z,91.89
2018-05-15T22:42:05.063Z,91.30
2018-05-15T22:44:32.926Z,92.44
2018-05-15T22:47:00.506Z,92.72
2018-05-15T22:49:28.169Z,93.10
2018-05-15T22:51:56.407Z,93.27
2018-05-15T22:54:24.605Z,92.47
2018-05-15T22:56:52.447Z,92.92
2018-05-15T22:59:20.194Z,92.18
2018-05-15T23:01:47.992Z,91.98
2018-05-15T23:04:15.846Z,91.54
2018-05-15T23:06:43.514Z,91.21
2018-05-15T23:09:11.372Z,92.03
2018-05-15T23:11:38.999Z,91.69
2018-05-15T23:14:07.022Z,91.10
2018-05-15T23:16:34.679Z,91.63
2018-05-15T23:19:02.627Z,91.35
2018-05-15T23:21:30.232Z,91.21
2018-05-15T23:23:57.980Z,91.03
2018-05-15T23:26:26.041Z,91.03
2018-05-15T23:28:53.697Z,90.77
2018-05-15T23:31:21.346Z,91.02
2018-05-15T23:33:48.929Z,91.35
2018-05-15T23:36:16.579Z,91.49
2018-05-15T23:38:44.220Z,91.98
2018-05-15T23:41:11.870Z,91.57
2018-05-15T23:43:39.481Z,91.76
2018-05-15T23:46:07.129Z,92.04
2018-05-15T23:48:34.810Z,91.94
2018-05-15T23:51:02.451Z,91.99
2018-05-15T23:53:30.078Z,92.50
2018-05-15T23:55:57.681Z,92.18
2018-05-15T23:58:26.073Z,91.89
